Time;durP1;ratioP1;P1;durP2;ratioP2;P2;SDS_P1;SDS_P2;PMS_P1;PMS_P2;Temp;Humidity;BMP_temperature;BMP_pressure;BME280_temperature;BME280_humidity;BME280_pressure;Samples;Min_cycle;Max_cycle;Signal;HPM_P1;HPM_P2
2023/12/12 00:01:24;;;;;;;8.40;2.13;;;10.10;99.90;;;;;;5147794;27;20027;-46
2023/12/12 00:03:50;;;;;;;13.68;2.42;;;10.10;99.90;;;;;;5146859;27;20027;-47
2023/12/12 00:06:16;;;;;;;6.55;2.60;;;10.10;99.90;;;;;;5148023;27;20035;-46
2023/12/12 00:08:42;;;;;;;10.95;2.40;;;10.10;99.90;;;;;;5146557;27;20047;-47
2023/12/12 00:11:07;;;;;;;9.77;2.42;;;10.10;99.90;;;;;;5147630;27;20035;-46
2023/12/12 00:13:33;;;;;;;7.28;2.13;;;10.10;99.90;;;;;;5147562;27;20056;-47
2023/12/12 00:15:58;;;;;;;7.82;2.78;;;10.10;99.90;;;;;;5146456;27;20038;-46
2023/12/12 00:18:24;;;;;;;8.75;2.10;;;10.10;99.90;;;;;;5146681;27;20027;-47
2023/12/12 00:20:50;;;;;;;7.68;1.73;;;10.10;99.90;;;;;;5147431;27;20031;-48
2023/12/12 00:23:16;;;;;;;8.70;2.30;;;10.10;99.90;;;;;;5147351;27;20019;-47
2023/12/12 00:25:42;;;;;;;9.18;2.17;;;10.10;99.90;;;;;;5147487;27;20069;-48
2023/12/12 00:28:07;;;;;;;8.68;2.10;;;10.10;99.90;;;;;;5147563;27;20031;-48
2023/12/12 00:30:33;;;;;;;9.55;2.28;;;10.10;99.90;;;;;;5147338;27;20019;-48
2023/12/12 00:32:59;;;;;;;9.60;2.08;;;10.00;99.90;;;;;;5147385;27;20146;-47
2023/12/12 00:35:24;;;;;;;9.77;2.70;;;10.10;99.90;;;;;;5147372;27;20331;-49
2023/12/12 00:37:50;;;;;;;5.70;2.40;;;10.10;99.90;;;;;;5147229;27;20026;-49
2023/12/12 00:40:16;;;;;;;7.57;2.08;;;10.10;99.90;;;;;;5147399;27;20031;-46
2023/12/12 00:42:41;;;;;;;6.40;2.13;;;10.00;99.90;;;;;;5146892;27;20031;-47
2023/12/12 00:45:07;;;;;;;6.22;1.83;;;10.10;99.90;;;;;;5146967;27;20023;-49
2023/12/12 00:47:33;;;;;;;7.57;1.52;;;10.00;99.90;;;;;;5146032;27;20237;-50
2023/12/12 00:49:59;;;;;;;5.75;1.70;;;10.00;99.90;;;;;;5147278;27;20042;-50
2023/12/12 00:52:25;;;;;;;4.00;1.58;;;10.00;99.90;;;;;;5147075;27;20038;-50
2023/12/12 00:54:51;;;;;;;3.80;1.30;;;10.00;99.90;;;;;;5146751;27;20054;-50
2023/12/12 00:57:17;;;;;;;10.02;1.75;;;10.00;99.90;;;;;;5146096;27;20027;-50
2023/12/12 00:59:42;;;;;;;3.22;1.20;;;10.00;99.90;;;;;;5146568;27;20207;-50
2023/12/12 01:02:08;;;;;;;3.05;1.20;;;10.00;99.90;;;;;;5147038;27;20082;-51
2023/12/12 01:04:34;;;;;;;3.08;1.08;;;10.00;99.90;;;;;;5145920;27;20023;-50
2023/12/12 01:07:00;;;;;;;4.93;1.25;;;10.10;99.90;;;;;;5145584;27;20055;-47
2023/12/12 01:09:26;;;;;;;2.47;1.23;;;10.10;99.90;;;;;;5146716;27;20215;-48
2023/12/12 01:11:51;;;;;;;2.95;1.20;;;10.10;99.90;;;;;;5146810;27;20031;-49
2023/12/12 01:14:17;;;;;;;3.38;1.38;;;10.10;99.90;;;;;;5146847;27;20280;-47
2023/12/12 01:16:43;;;;;;;3.28;1.10;;;10.10;99.90;;;;;;5146279;28;20035;-47
2023/12/12 01:19:08;;;;;;;4.95;1.23;;;10.00;99.90;;;;;;5146742;28;20023;-49
2023/12/12 01:21:34;;;;;;;5.38;1.75;;;10.00;99.90;;;;;;5146429;28;20015;-48
2023/12/12 01:24:00;;;;;;;5.90;1.40;;;10.00;99.90;;;;;;5145698;28;20043;-47
2023/12/12 01:26:26;;;;;;;3.50;1.20;;;10.00;99.90;;;;;;5147015;27;20089;-47
2023/12/12 01:28:52;;;;;;;3.33;1.25;;;9.90;99.90;;;;;;5150725;27;20288;-47
2023/12/12 01:31:18;;;;;;;7.22;1.65;;;9.90;99.90;;;;;;5149870;27;20023;-48
2023/12/12 01:33:43;;;;;;;10.18;2.20;;;9.90;99.90;;;;;;5150805;27;20038;-48
2023/12/12 01:36:09;;;;;;;4.32;1.90;;;9.90;99.90;;;;;;5149725;27;20030;-50
2023/12/12 01:38:35;;;;;;;4.57;1.63;;;9.90;99.90;;;;;;5150841;27;20094;-49
2023/12/12 01:41:01;;;;;;;6.50;1.60;;;9.90;99.90;;;;;;5150915;27;20015;-50
2023/12/12 01:43:28;;;;;;;7.63;1.20;;;9.90;99.90;;;;;;5149615;27;20023;-50
2023/12/12 01:45:56;;;;;;;6.70;1.45;;;10.00;99.90;;;;;;5150576;27;20286;-50
2023/12/12 01:48:22;;;;;;;7.07;1.80;;;9.90;99.90;;;;;;5150550;27;20038;-50
2023/12/12 01:50:51;;;;;;;5.75;1.35;;;9.90;99.90;;;;;;5149610;27;20099;-50
2023/12/12 01:53:19;;;;;;;4.68;1.35;;;9.90;99.90;;;;;;5132179;27;20035;-50
2023/12/12 01:55:47;;;;;;;5.35;1.10;;;9.90;99.90;;;;;;5150306;27;20092;-49
2023/12/12 01:58:13;;;;;;;5.55;1.33;;;9.90;99.90;;;;;;5149437;27;20022;-49
2023/12/12 02:00:38;;;;;;;7.47;1.67;;;9.90;99.90;;;;;;5132172;27;20055;-51
2023/12/12 02:03:04;;;;;;;7.18;1.38;;;9.90;99.90;;;;;;5149589;27;20310;-50
2023/12/12 02:05:30;;;;;;;2.80;1.02;;;9.80;99.90;;;;;;5149196;27;20023;-51
2023/12/12 02:07:56;;;;;;;7.32;1.17;;;9.80;99.90;;;;;;5149824;27;20096;-50
2023/12/12 02:10:22;;;;;;;4.38;1.23;;;9.90;99.90;;;;;;5149142;27;20027;-50
2023/12/12 02:12:48;;;;;;;5.03;1.25;;;9.90;99.90;;;;;;5149239;27;20019;-50
2023/12/12 02:15:15;;;;;;;3.88;1.40;;;9.90;99.90;;;;;;5149792;27;20027;-50
2023/12/12 02:17:40;;;;;;;10.15;1.27;;;9.90;99.90;;;;;;5150101;27;20094;-50
2023/12/12 02:20:07;;;;;;;6.13;1.27;;;9.90;99.90;;;;;;5149941;27;20080;-50
2023/12/12 02:22:32;;;;;;;6.95;1.20;;;9.80;99.90;;;;;;5148707;27;20189;-48
2023/12/12 02:24:58;;;;;;;6.63;1.42;;;9.80;99.90;;;;;;5149774;27;20024;-49
2023/12/12 02:27:24;;;;;;;8.40;1.40;;;9.70;99.90;;;;;;5148747;27;20030;-47
2023/12/12 02:29:50;;;;;;;8.40;1.45;;;9.70;99.90;;;;;;5148803;27;20038;-47
2023/12/12 02:32:16;;;;;;;4.53;1.40;;;9.60;99.90;;;;;;5149892;27;20023;-47
2023/12/12 02:34:43;;;;;;;8.52;1.52;;;9.60;99.90;;;;;;5149390;27;20030;-47
2023/12/12 02:37:08;;;;;;;3.20;1.33;;;9.50;99.90;;;;;;5148428;27;20174;-48
2023/12/12 02:39:34;;;;;;;9.95;1.58;;;9.50;99.90;;;;;;5147681;27;20099;-47
2023/12/12 02:42:00;;;;;;;9.45;1.60;;;9.50;99.90;;;;;;5149552;27;20080;-50
2023/12/12 02:44:25;;;;;;;7.78;1.45;;;9.40;99.90;;;;;;5149535;27;20034;-50
2023/12/12 02:46:51;;;;;;;9.75;2.00;;;9.40;99.90;;;;;;5149425;27;20051;-50
2023/12/12 02:49:17;;;;;;;3.97;1.67;;;9.30;99.90;;;;;;5149253;27;20158;-49
2023/12/12 02:51:43;;;;;;;9.10;1.60;;;9.30;99.90;;;;;;5149324;27;20090;-50
2023/12/12 02:54:08;;;;;;;6.22;1.73;;;9.30;99.90;;;;;;5148948;27;20086;-49
2023/12/12 02:56:34;;;;;;;6.45;1.73;;;9.30;99.90;;;;;;5149257;27;20288;-50
2023/12/12 02:59:00;;;;;;;5.65;1.77;;;9.30;99.90;;;;;;5149227;27;20170;-51
2023/12/12 03:01:25;;;;;;;10.18;1.83;;;9.20;99.90;;;;;;5148992;27;20027;-51
2023/12/12 03:03:51;;;;;;;9.77;1.77;;;9.20;99.90;;;;;;5149247;27;20015;-54
2023/12/12 03:06:17;;;;;;;10.73;2.15;;;9.20;99.90;;;;;;5149080;27;20027;-52
2023/12/12 03:08:43;;;;;;;9.52;1.73;;;9.20;99.90;;;;;;5148426;27;20358;-50
2023/12/12 03:11:08;;;;;;;8.77;1.52;;;9.20;99.90;;;;;;5148766;27;20027;-50
2023/12/12 03:13:34;;;;;;;8.15;1.80;;;9.20;99.90;;;;;;5148965;27;20094;-51
2023/12/12 03:16:00;;;;;;;12.13;2.20;;;9.20;99.90;;;;;;5149027;27;20187;-50
2023/12/12 03:18:25;;;;;;;10.82;1.92;;;9.30;99.90;;;;;;5147809;27;20023;-51
2023/12/12 03:20:51;;;;;;;7.57;1.60;;;9.30;99.90;;;;;;5148773;27;20054;-50
2023/12/12 03:23:16;;;;;;;11.57;2.45;;;9.30;99.90;;;;;;5148766;27;20048;-50
2023/12/12 03:25:42;;;;;;;17.42;2.40;;;9.30;99.90;;;;;;5148295;27;20184;-49
2023/12/12 03:28:08;;;;;;;13.70;2.40;;;9.30;99.90;;;;;;5147686;27;20288;-50
2023/12/12 03:30:33;;;;;;;18.00;2.58;;;9.30;99.90;;;;;;5148687;27;20035;-50
2023/12/12 03:32:59;;;;;;;10.68;1.83;;;9.40;99.90;;;;;;5148756;27;20068;-50
2023/12/12 03:35:25;;;;;;;15.45;2.20;;;9.30;99.90;;;;;;5148448;27;20050;-50
2023/12/12 03:37:50;;;;;;;10.77;2.10;;;9.40;99.90;;;;;;5148406;27;20037;-49
2023/12/12 03:40:16;;;;;;;9.65;1.92;;;9.50;99.90;;;;;;5148420;27;20068;-47
2023/12/12 03:42:42;;;;;;;16.55;2.17;;;9.50;99.90;;;;;;5147982;27;20285;-47
2023/12/12 03:45:08;;;;;;;15.98;2.40;;;9.50;99.90;;;;;;5148489;27;20027;-48
2023/12/12 03:47:34;;;;;;;10.43;1.85;;;9.60;99.90;;;;;;5148340;27;20030;-49
2023/12/12 03:50:00;;;;;;;19.63;2.42;;;9.70;99.90;;;;;;5147384;27;20227;-48
2023/12/12 03:52:25;;;;;;;14.98;2.47;;;9.70;99.90;;;;;;5147805;27;20027;-48
2023/12/12 03:54:51;;;;;;;15.23;2.53;;;9.70;99.90;;;;;;5147852;27;20185;-47
2023/12/12 03:57:17;;;;;;;23.50;2.42;;;9.70;99.90;;;;;;5147569;27;20376;-48
2023/12/12 03:59:42;;;;;;;20.27;2.83;;;9.80;99.90;;;;;;5146873;27;20027;-48
2023/12/12 04:02:08;;;;;;;17.70;2.20;;;9.80;99.90;;;;;;5146976;27;20027;-47
2023/12/12 04:04:33;;;;;;;20.40;3.05;;;9.80;99.90;;;;;;5147974;27;20266;-46
2023/12/12 04:06:59;;;;;;;18.00;2.65;;;9.80;99.90;;;;;;5147402;27;20093;-46
2023/12/12 04:09:25;;;;;;;22.60;2.78;;;9.80;99.90;;;;;;5146761;27;20023;-51
2023/12/12 04:11:50;;;;;;;19.20;2.80;;;9.80;99.90;;;;;;5147761;27;20050;-50
2023/12/12 04:14:16;;;;;;;22.50;3.60;;;9.70;99.90;;;;;;5146691;27;20042;-49
2023/12/12 04:16:42;;;;;;;20.98;3.75;;;9.70;99.90;;;;;;5147511;27;20039;-48
2023/12/12 04:19:07;;;;;;;23.38;2.75;;;9.80;99.90;;;;;;5147645;27;20030;-53
2023/12/12 04:21:33;;;;;;;24.90;2.80;;;9.80;99.90;;;;;;5146564;27;20386;-50
2023/12/12 04:23:59;;;;;;;25.30;3.13;;;9.80;99.90;;;;;;5147571;27;20325;-50
2023/12/12 04:26:28;;;;;;;28.08;3.53;;;9.90;99.90;;;;;;5147490;27;20031;-50
2023/12/12 04:28:54;;;;;;;23.85;3.33;;;9.80;99.90;;;;;;5147342;27;20113;-50
2023/12/12 04:31:20;;;;;;;22.50;2.80;;;9.80;99.90;;;;;;5146399;27;20083;-50
2023/12/12 04:33:45;;;;;;;31.33;3.72;;;9.80;99.90;;;;;;5147290;27;20030;-50
2023/12/12 04:36:14;;;;;;;24.63;3.95;;;9.80;99.90;;;;;;5147378;27;20042;-49
2023/12/12 04:38:39;;;;;;;29.30;3.88;;;9.90;99.90;;;;;;5147394;27;20177;-48
2023/12/12 04:41:05;;;;;;;28.30;4.03;;;9.80;99.90;;;;;;5146022;27;20019;-51
2023/12/12 04:43:32;;;;;;;17.95;3.15;;;9.90;99.90;;;;;;5147258;27;20023;-50
2023/12/12 04:45:58;;;;;;;24.88;4.20;;;9.90;99.90;;;;;;5147199;27;20027;-50
2023/12/12 04:48:23;;;;;;;25.88;3.08;;;9.90;99.90;;;;;;5146042;27;20272;-48
2023/12/12 04:50:49;;;;;;;23.35;3.17;;;10.00;99.90;;;;;;5146245;27;20041;-50
2023/12/12 04:53:16;;;;;;;25.08;3.42;;;10.00;99.90;;;;;;5147104;27;20272;-50
2023/12/12 04:55:42;;;;;;;20.10;3.40;;;10.00;99.90;;;;;;5145855;27;20231;-49
2023/12/12 04:58:07;;;;;;;23.55;3.97;;;10.00;99.90;;;;;;5147099;27;20027;-47
2023/12/12 05:00:33;;;;;;;21.45;3.30;;;10.10;99.90;;;;;;5146996;27;20296;-47
2023/12/12 05:02:59;;;;;;;20.05;3.33;;;10.10;99.90;;;;;;5146738;27;20027;-49
2023/12/12 05:05:24;;;;;;;20.95;3.08;;;10.10;99.90;;;;;;5146800;27;20042;-49
2023/12/12 05:07:51;;;;;;;19.95;3.67;;;10.10;99.90;;;;;;5146460;27;20051;-52
2023/12/12 05:10:17;;;;;;;25.35;3.33;;;10.10;99.90;;;;;;5146812;27;20034;-50
2023/12/12 05:12:42;;;;;;;23.80;3.40;;;10.10;99.90;;;;;;5145891;27;20027;-50
2023/12/12 05:15:09;;;;;;;22.90;3.67;;;10.10;99.90;;;;;;5145602;28;20027;-53
2023/12/12 05:17:35;;;;;;;16.50;2.78;;;10.10;99.90;;;;;;5146841;28;20064;-49
2023/12/12 05:20:00;;;;;;;25.05;3.05;;;10.10;99.90;;;;;;5145726;28;20035;-51
2023/12/12 05:22:26;;;;;;;14.70;2.08;;;10.10;99.90;;;;;;5146806;28;20030;-50
2023/12/12 05:24:52;;;;;;;8.55;1.77;;;9.90;99.90;;;;;;5146673;28;20027;-50
2023/12/12 05:27:17;;;;;;;13.05;2.05;;;9.50;99.90;;;;;;5146558;28;20035;-51
2023/12/12 05:29:43;;;;;;;9.52;1.10;;;9.20;99.90;;;;;;5146697;28;20019;-50
2023/12/12 05:32:09;;;;;;;10.10;1.35;;;9.10;99.90;;;;;;5146258;28;20041;-51
2023/12/12 05:34:35;;;;;;;8.82;1.30;;;9.00;99.90;;;;;;5146687;28;20035;-51
2023/12/12 05:37:01;;;;;;;8.95;1.35;;;8.90;99.90;;;;;;5146665;28;20030;-51
2023/12/12 05:39:26;;;;;;;8.27;1.10;;;8.90;99.90;;;;;;5145432;28;20020;-50
2023/12/12 05:41:52;;;;;;;6.53;1.20;;;8.90;99.90;;;;;;5146433;28;20031;-51
2023/12/12 05:44:18;;;;;;;7.50;1.17;;;8.90;99.90;;;;;;5128250;28;20015;-49
2023/12/12 05:46:43;;;;;;;4.60;1.10;;;8.90;99.90;;;;;;5146634;28;20046;-48
2023/12/12 05:49:09;;;;;;;5.32;0.80;;;8.90;99.90;;;;;;5146476;28;20035;-50
2023/12/12 05:51:37;;;;;;;6.90;1.00;;;8.80;99.90;;;;;;5145313;28;20019;-50
2023/12/12 05:54:03;;;;;;;3.80;0.70;;;8.80;99.90;;;;;;5128808;28;20090;-51
2023/12/12 05:56:29;;;;;;;7.10;0.85;;;8.80;99.90;;;;;;5146471;28;20103;-50
2023/12/12 05:58:55;;;;;;;3.15;0.80;;;8.70;99.90;;;;;;5146577;28;20023;-50
2023/12/12 06:01:22;;;;;;;5.65;1.08;;;8.60;99.90;;;;;;5145222;28;20030;-50
2023/12/12 06:03:48;;;;;;;4.28;0.80;;;8.60;99.90;;;;;;5146042;28;20034;-51
2023/12/12 06:06:14;;;;;;;3.10;0.82;;;8.60;99.90;;;;;;5146389;28;20026;-51
2023/12/12 06:08:39;;;;;;;6.43;0.85;;;8.60;99.90;;;;;;5144928;28;20216;-50
2023/12/12 06:11:06;;;;;;;4.25;0.80;;;8.50;99.90;;;;;;5146233;28;20031;-50
2023/12/12 06:13:31;;;;;;;6.70;1.00;;;8.50;99.90;;;;;;5146535;27;20154;-51
2023/12/12 06:15:58;;;;;;;6.80;1.10;;;8.40;99.90;;;;;;5150475;27;20054;-50
2023/12/12 06:18:25;;;;;;;2.13;0.80;;;8.40;99.90;;;;;;5131788;27;20024;-48
2023/12/12 06:20:50;;;;;;;5.15;1.10;;;8.40;99.90;;;;;;5149106;27;20023;-48
2023/12/12 06:23:17;;;;;;;8.13;1.08;;;8.50;99.90;;;;;;5149737;27;20041;-51
2023/12/12 06:25:43;;;;;;;2.60;0.80;;;8.40;99.90;;;;;;5149884;27;20300;-48
2023/12/12 06:28:08;;;;;;;7.35;0.93;;;8.40;99.90;;;;;;5149728;27;20031;-46
2023/12/12 06:30:34;;;;;;;3.08;1.00;;;8.40;99.90;;;;;;5149751;27;20034;-49
2023/12/12 06:33:00;;;;;;;7.38;1.75;;;8.40;99.90;;;;;;5149493;27;20153;-48
2023/12/12 06:35:25;;;;;;;5.88;1.40;;;8.40;99.90;;;;;;5148633;27;20209;-50
2023/12/12 06:37:51;;;;;;;6.78;1.40;;;8.40;99.90;;;;;;5149713;27;20030;-51
2023/12/12 06:40:17;;;;;;;6.32;1.58;;;8.40;99.90;;;;;;5149597;27;20068;-49
2023/12/12 06:42:44;;;;;;;6.20;1.60;;;8.40;99.90;;;;;;5149634;27;20215;-50
2023/12/12 06:45:10;;;;;;;7.30;1.63;;;8.40;99.90;;;;;;5149147;27;20103;-49
2023/12/12 06:47:36;;;;;;;4.60;1.42;;;8.40;99.90;;;;;;5149328;27;20064;-50
2023/12/12 06:50:05;;;;;;;6.75;1.50;;;8.30;99.90;;;;;;5148250;27;20027;-51
2023/12/12 06:52:32;;;;;;;6.68;1.48;;;8.30;99.90;;;;;;5148727;27;20117;-50
2023/12/12 06:54:57;;;;;;;7.30;1.85;;;8.30;99.90;;;;;;5149462;27;20094;-50
2023/12/12 06:57:23;;;;;;;5.60;1.65;;;8.30;99.90;;;;;;5148991;27;20039;-50
2023/12/12 06:59:49;;;;;;;7.05;1.48;;;8.30;99.90;;;;;;5149120;27;20202;-50
2023/12/12 07:02:15;;;;;;;6.28;1.40;;;8.30;99.90;;;;;;5148462;27;20090;-50
2023/12/12 07:04:41;;;;;;;6.05;1.67;;;8.30;99.90;;;;;;5149161;27;20227;-50
2023/12/12 07:07:09;;;;;;;4.40;1.88;;;8.20;99.90;;;;;;5148900;27;20136;-51
2023/12/12 07:09:35;;;;;;;6.53;2.10;;;8.10;99.90;;;;;;5148981;27;20049;-49
2023/12/12 07:12:01;;;;;;;5.68;1.75;;;8.10;99.90;;;;;;5149023;27;20084;-48
2023/12/12 07:14:26;;;;;;;9.35;3.42;;;8.10;99.90;;;;;;5148937;27;20030;-48
2023/12/12 07:16:52;;;;;;;5.38;2.00;;;8.10;99.90;;;;;;5148491;27;20237;-48
2023/12/12 07:19:18;;;;;;;5.85;1.95;;;8.20;99.90;;;;;;5148676;27;20038;-49
2023/12/12 07:21:44;;;;;;;4.97;1.67;;;8.20;99.90;;;;;;5148826;27;20023;-49
2023/12/12 07:24:10;;;;;;;5.75;2.20;;;8.20;99.90;;;;;;5148673;27;20027;-50
2023/12/12 07:26:36;;;;;;;12.05;3.67;;;8.20;99.90;;;;;;5148616;27;20027;-51
2023/12/12 07:29:02;;;;;;;9.30;2.53;;;8.10;99.90;;;;;;5147521;27;20029;-49
2023/12/12 07:31:28;;;;;;;7.10;2.78;;;8.10;99.90;;;;;;5148361;27;20230;-49
2023/12/12 07:33:53;;;;;;;5.90;2.10;;;8.20;99.90;;;;;;5148499;27;20037;-48
2023/12/12 07:36:19;;;;;;;5.00;2.05;;;8.20;99.90;;;;;;5148323;27;20070;-48
2023/12/12 07:38:45;;;;;;;6.80;2.10;;;8.20;99.90;;;;;;5147880;27;20027;-48
2023/12/12 07:41:10;;;;;;;5.85;1.92;;;8.30;99.90;;;;;;5148279;27;20031;-48
2023/12/12 07:43:36;;;;;;;6.15;1.98;;;8.30;99.90;;;;;;5148122;27;20039;-48
2023/12/12 07:46:02;;;;;;;6.20;2.55;;;8.30;99.90;;;;;;5147190;27;20064;-47
2023/12/12 07:48:29;;;;;;;10.32;2.40;;;8.40;99.90;;;;;;5147906;27;20035;-47
2023/12/12 07:50:55;;;;;;;6.30;2.20;;;8.40;99.90;;;;;;5147948;27;20027;-50
2023/12/12 07:53:21;;;;;;;8.02;1.95;;;8.50;99.90;;;;;;5147706;27;20304;-48
2023/12/12 07:55:47;;;;;;;10.57;2.20;;;8.50;99.90;;;;;;5147422;27;20131;-47
2023/12/12 07:58:12;;;;;;;10.02;1.85;;;8.60;99.90;;;;;;5147477;27;20289;-47
2023/12/12 08:00:39;;;;;;;6.18;1.95;;;8.60;99.90;;;;;;5147900;27;20274;-48
2023/12/12 08:03:05;;;;;;;5.25;1.50;;;8.60;99.90;;;;;;5147402;27;20037;-47
2023/12/12 08:05:31;;;;;;;7.97;2.08;;;8.60;99.90;;;;;;5147401;27;20062;-50
2023/12/12 08:08:01;;;;;;;8.50;1.95;;;8.70;99.90;;;;;;5147204;27;20063;-48
2023/12/12 08:10:27;;;;;;;3.22;1.02;;;8.70;99.90;;;;;;5147031;27;20023;-47
2023/12/12 08:12:53;;;;;;;8.82;1.83;;;8.70;99.90;;;;;;5147552;27;20023;-47
2023/12/12 08:15:20;;;;;;;7.38;1.83;;;8.70;99.90;;;;;;5147429;27;20088;-48
2023/12/12 08:17:45;;;;;;;5.38;1.15;;;8.70;99.90;;;;;;5147518;27;20176;-47
2023/12/12 08:20:11;;;;;;;7.45;1.98;;;8.80;99.90;;;;;;5147552;27;20023;-48
2023/12/12 08:22:37;;;;;;;8.90;1.60;;;8.80;99.90;;;;;;5147630;27;20027;-47
2023/12/12 08:25:05;;;;;;;8.18;1.80;;;8.80;99.90;;;;;;5146157;27;20055;-47
2023/12/12 08:27:31;;;;;;;10.07;3.22;;;8.80;99.90;;;;;;5146173;27;20047;-46
2023/12/12 08:29:57;;;;;;;4.43;1.70;;;8.90;99.90;;;;;;5147130;27;20035;-47
2023/12/12 08:32:22;;;;;;;6.57;2.30;;;8.90;99.90;;;;;;5146059;27;20037;-47
2023/12/12 08:34:49;;;;;;;8.50;2.65;;;8.90;99.90;;;;;;5146938;27;20019;-47
2023/12/12 08:37:16;;;;;;;11.23;2.40;;;9.00;99.90;;;;;;5145282;27;20253;-47
2023/12/12 08:39:42;;;;;;;6.60;1.85;;;9.00;99.90;;;;;;5146933;27;20019;-47
2023/12/12 08:42:07;;;;;;;8.77;3.60;;;9.00;99.90;;;;;;5145689;27;20053;-48
2023/12/12 08:44:33;;;;;;;10.27;3.80;;;9.10;99.90;;;;;;5146263;27;20072;-47
2023/12/12 08:46:59;;;;;;;8.48;3.85;;;9.10;99.90;;;;;;5146991;27;20035;-46
2023/12/12 08:49:25;;;;;;;10.18;3.50;;;9.10;99.90;;;;;;5146629;27;20027;-48
2023/12/12 08:51:51;;;;;;;8.57;3.85;;;9.20;99.90;;;;;;5145518;27;20050;-47
2023/12/12 08:54:16;;;;;;;6.57;3.83;;;9.20;99.90;;;;;;5146766;27;20031;-48
2023/12/12 08:56:45;;;;;;;6.40;2.97;;;9.20;99.90;;;;;;5146699;27;20031;-47
2023/12/12 08:59:10;;;;;;;11.63;3.75;;;9.20;99.90;;;;;;5146761;27;20310;-46
2023/12/12 09:01:36;;;;;;;6.63;2.70;;;9.30;99.90;;;;;;5146395;27;20105;-47
2023/12/12 09:04:02;;;;;;;4.03;3.17;;;9.20;99.90;;;;;;5146623;27;20045;-47
2023/12/12 09:06:28;;;;;;;7.22;2.38;;;9.20;99.90;;;;;;5145624;27;20086;-47
2023/12/12 09:08:53;;;;;;;3.22;1.20;;;9.30;99.90;;;;;;5128166;28;20057;-47
2023/12/12 09:11:19;;;;;;;3.42;1.90;;;9.30;99.90;;;;;;5146356;27;20038;-47
2023/12/12 09:13:45;;;;;;;2.90;1.40;;;9.20;99.90;;;;;;5146369;27;20117;-47
2023/12/12 09:16:11;;;;;;;4.38;1.60;;;9.10;99.90;;;;;;5145401;27;20031;-47
2023/12/12 09:18:37;;;;;;;6.35;1.45;;;9.10;99.90;;;;;;5146639;28;20076;-47
2023/12/12 09:21:03;;;;;;;1.98;0.68;;;9.10;99.90;;;;;;5146561;28;20039;-47
2023/12/12 09:23:30;;;;;;;2.47;0.80;;;9.10;99.90;;;;;;5146518;27;20036;-47
2023/12/12 09:25:55;;;;;;;4.38;1.63;;;9.10;99.90;;;;;;5146478;28;20026;-49
2023/12/12 09:28:22;;;;;;;3.42;1.20;;;9.10;99.90;;;;;;5146045;28;20027;-50
2023/12/12 09:30:47;;;;;;;3.03;1.00;;;9.00;99.90;;;;;;5146446;28;20042;-51
2023/12/12 09:33:13;;;;;;;2.92;1.10;;;8.90;99.90;;;;;;5145353;28;20023;-50
2023/12/12 09:35:39;;;;;;;3.40;1.50;;;8.80;99.90;;;;;;5145331;28;20090;-51
2023/12/12 09:38:05;;;;;;;1.35;0.90;;;8.80;99.90;;;;;;5145269;28;20083;-51
2023/12/12 09:40:34;;;;;;;1.58;0.70;;;8.80;99.90;;;;;;5146434;28;20181;-48
2023/12/12 09:42:59;;;;;;;2.72;1.10;;;8.80;99.90;;;;;;5146460;28;20121;-46
2023/12/12 09:45:25;;;;;;;1.75;0.85;;;8.80;99.90;;;;;;5145234;28;20228;-47
2023/12/12 09:47:51;;;;;;;1.85;0.90;;;8.90;99.90;;;;;;5146214;27;20026;-47
2023/12/12 09:50:16;;;;;;;1.67;1.00;;;8.90;99.90;;;;;;5132107;27;20041;-46
2023/12/12 09:52:42;;;;;;;2.92;0.90;;;8.90;99.90;;;;;;5149016;27;20235;-47
2023/12/12 09:55:08;;;;;;;5.80;1.70;;;8.90;99.90;;;;;;5149034;27;20027;-49
2023/12/12 09:57:33;;;;;;;5.07;2.97;;;8.80;99.90;;;;;;5149080;27;20082;-47
2023/12/12 09:59:59;;;;;;;5.68;2.47;;;8.90;99.90;;;;;;5149542;27;20196;-47
2023/12/12 10:02:35;;;;;;;1.92;1.45;;;8.80;99.90;;;;;;5148974;27;20015;-49
2023/12/12 10:05:02;;;;;;;2.60;1.48;;;8.90;99.90;;;;;;5149788;27;20023;-50
2023/12/12 10:07:28;;;;;;;3.90;1.92;;;8.80;99.90;;;;;;5149529;27;20055;-50
2023/12/12 10:09:54;;;;;;;1.33;0.90;;;8.80;99.90;;;;;;5148918;27;20084;-50
2023/12/12 10:12:20;;;;;;;2.35;0.88;;;8.80;99.90;;;;;;5149787;27;20223;-50
2023/12/12 10:14:47;;;;;;;2.75;1.10;;;8.80;99.90;;;;;;5149546;27;20034;-50
2023/12/12 10:17:13;;;;;;;2.40;0.85;;;8.70;99.90;;;;;;5148407;27;20023;-48
2023/12/12 10:19:38;;;;;;;2.40;1.55;;;8.80;99.90;;;;;;5149765;27;20126;-48
2023/12/12 10:22:04;;;;;;;0.85;0.80;;;8.70;99.90;;;;;;5148296;27;20047;-48
2023/12/12 10:24:30;;;;;;;2.15;0.68;;;8.70;99.90;;;;;;5149734;27;20022;-49
2023/12/12 10:26:56;;;;;;;3.17;1.13;;;8.70;99.90;;;;;;5149212;27;20031;-46
2023/12/12 10:29:22;;;;;;;1.70;0.70;;;8.70;99.90;;;;;;5149260;27;20064;-50
2023/12/12 10:31:48;;;;;;;0.73;0.70;;;8.60;99.90;;;;;;5148210;27;20091;-56
2023/12/12 10:34:16;;;;;;;0.85;0.70;;;8.60;99.90;;;;;;5149444;27;20087;-49
2023/12/12 10:36:42;;;;;;;3.25;0.90;;;8.60;99.90;;;;;;5148949;27;20027;-48
2023/12/12 10:39:12;;;;;;;0.60;0.60;;;8.50;99.90;;;;;;5149191;27;20037;-46
2023/12/12 10:41:38;;;;;;;3.47;2.25;;;8.40;99.90;;;;;;5147993;27;20158;-49
2023/12/12 10:44:05;;;;;;;2.05;0.80;;;8.40;99.90;;;;;;5149366;27;20046;-50
2023/12/12 10:46:32;;;;;;;2.78;0.70;;;8.40;99.90;;;;;;5131233;27;20023;-51
2023/12/12 10:48:58;;;;;;;2.17;0.80;;;8.40;99.90;;;;;;5148173;27;20023;-49
2023/12/12 10:51:24;;;;;;;0.85;0.70;;;8.40;99.90;;;;;;5131080;27;20083;-47
2023/12/12 10:53:51;;;;;;;2.20;0.70;;;8.50;99.90;;;;;;5131027;27;20023;-47
2023/12/12 10:56:17;;;;;;;2.08;0.93;;;8.50;99.90;;;;;;5147749;27;20059;-46
2023/12/12 10:58:43;;;;;;;2.05;0.90;;;8.50;99.90;;;;;;5148717;27;20019;-46
2023/12/12 11:01:10;;;;;;;1.02;0.80;;;8.50;99.90;;;;;;5148219;27;20020;-46
2023/12/12 11:03:36;;;;;;;4.63;1.73;;;8.40;99.90;;;;;;5148863;27;20023;-45
2023/12/12 11:06:03;;;;;;;1.30;0.70;;;8.50;99.90;;;;;;5148966;27;20045;-45
2023/12/12 11:08:29;;;;;;;4.25;1.38;;;8.50;99.90;;;;;;5147471;27;20043;-48
2023/12/12 11:10:55;;;;;;;4.85;1.30;;;8.50;99.90;;;;;;5147917;27;20087;-46
2023/12/12 11:13:39;;;;;;;4.15;2.22;;;8.50;99.90;;;;;;5147551;27;20093;-47
2023/12/12 11:16:06;;;;;;;7.22;3.17;;;8.50;99.90;;;;;;5130411;27;20039;-46
2023/12/12 11:18:31;;;;;;;5.25;1.70;;;8.50;99.90;;;;;;5147385;27;20300;-49
2023/12/12 11:20:57;;;;;;;4.00;1.70;;;8.50;99.90;;;;;;5148204;27;20099;-49
2023/12/12 11:23:53;;;;;;;2.45;1.10;;;8.50;99.90;;;;;;5148449;27;20030;-50
2023/12/12 11:26:18;;;;;;;4.20;1.30;;;8.50;99.90;;;;;;5146929;27;20042;-50
2023/12/12 11:28:45;;;;;;;5.07;1.20;;;8.50;99.90;;;;;;5147992;27;20023;-49
2023/12/12 11:31:10;;;;;;;5.90;2.33;;;8.50;99.90;;;;;;5148073;27;20273;-48
2023/12/12 11:33:57;;;;;;;4.90;2.60;;;8.40;99.90;;;;;;5147968;27;20042;-49
2023/12/12 11:36:26;;;;;;;2.75;1.35;;;8.40;99.90;;;;;;5136602;27;20327;-49
2023/12/12 11:38:54;;;;;;;3.80;2.10;;;8.50;99.90;;;;;;5148123;27;20031;-50
2023/12/12 11:41:20;;;;;;;3.72;1.45;;;8.50;99.90;;;;;;5147921;27;20207;-49
2023/12/12 11:43:46;;;;;;;2.65;0.90;;;8.40;99.90;;;;;;5147926;27;20027;-50
2023/12/12 11:46:18;;;;;;;3.63;1.63;;;8.50;99.90;;;;;;5146982;27;20031;-49
2023/12/12 11:48:44;;;;;;;1.88;1.00;;;8.50;99.90;;;;;;5147745;27;20095;-49
2023/12/12 11:51:35;;;;;;;5.78;1.02;;;8.50;99.90;;;;;;5147047;27;20280;-49
2023/12/12 11:54:04;;;;;;;3.17;1.38;;;8.60;99.90;;;;;;5147483;27;20161;-49
2023/12/12 11:56:29;;;;;;;5.55;1.40;;;8.60;99.90;;;;;;5129383;27;20027;-48
2023/12/12 11:58:55;;;;;;;6.03;2.05;;;8.60;99.90;;;;;;5147714;27;20026;-50
2023/12/12 12:01:25;;;;;;;3.75;1.27;;;8.60;99.90;;;;;;5146413;27;20027;-50
2023/12/12 12:03:51;;;;;;;6.10;2.55;;;8.70;99.90;;;;;;5147375;27;20034;-50
2023/12/12 12:06:17;;;;;;;5.80;2.22;;;8.70;99.90;;;;;;5112308;27;20031;-51
2023/12/12 12:08:43;;;;;;;4.28;1.23;;;8.80;99.90;;;;;;5147008;27;20058;-50
2023/12/12 12:11:11;;;;;;;5.25;1.30;;;8.70;99.90;;;;;;5146437;27;20092;-51
2023/12/12 12:13:40;;;;;;;3.63;1.55;;;8.70;99.90;;;;;;5147041;27;20140;-50
2023/12/12 12:16:06;;;;;;;1.17;0.80;;;8.70;99.90;;;;;;5147138;27;20092;-49
2023/12/12 12:18:32;;;;;;;2.15;1.10;;;8.70;99.90;;;;;;5128706;27;20052;-47
2023/12/12 12:20:58;;;;;;;2.45;0.93;;;8.70;99.90;;;;;;5147251;27;20035;-49
2023/12/12 12:23:24;;;;;;;3.33;1.30;;;8.80;99.90;;;;;;5147012;27;20107;-48
2023/12/12 12:25:50;;;;;;;1.42;0.80;;;8.80;99.90;;;;;;5145933;27;20308;-48
2023/12/12 12:28:16;;;;;;;2.53;1.00;;;8.80;99.90;;;;;;5128910;27;20055;-49
2023/12/12 12:30:47;;;;;;;3.03;1.10;;;8.90;99.90;;;;;;5146097;27;20277;-49
2023/12/12 12:33:13;;;;;;;3.65;1.30;;;9.00;99.90;;;;;;5146780;27;20145;-50
2023/12/12 12:35:59;;;;;;;2.88;1.40;;;9.10;99.90;;;;;;5147053;27;20042;-51
2023/12/12 12:38:26;;;;;;;4.88;2.38;;;9.20;99.90;;;;;;5147005;27;20110;-51
2023/12/12 12:40:51;;;;;;;3.40;1.50;;;9.40;99.90;;;;;;5145847;27;20069;-51
2023/12/12 12:43:17;;;;;;;4.53;1.00;;;9.60;99.90;;;;;;5128802;27;20023;-51
2023/12/12 12:45:45;;;;;;;4.63;1.83;;;9.70;99.90;;;;;;5146701;27;20382;-51
2023/12/12 12:48:11;;;;;;;5.15;1.70;;;9.90;99.90;;;;;;5145576;27;20102;-48